Volcano, Hawaii
Current Conditions -  °F | °C
As of 5:53 AM on Saturday 22 Nov 2014 (Local Time) from PHTO Reporting Station
Overcast Overcast  
Wind Chill: 67°   Ceiling: 3700
Heat Index: 67°   Visibility: 10mi
Dew Point: 67°   Wind: 5mph
Humidity: 100%   Direction: 240°WSW
Pressure: 30.08"   Gusts: NA
Location:  19.42°N, 155.22°W
Report Text: PHTO 221553Z 24004KT 10SM BKN037 BKN049 OVC060 19/19 A3008 RMK AO2 RAB12E29 SLP185 P0000 T01940194 $
Loading
Personal Weather Stations






























Interactive Weather Map New forecast layout! Learn more

10-Day Weather Forecast

Advertisements
Track Severe Weather on mobile